createdAt,value
2018-06-02T00:00:45.387Z,79.20
2018-06-02T00:03:14.356Z,79.51
2018-06-02T00:05:43.160Z,79.54
2018-06-02T00:08:12.854Z,79.52
2018-06-02T00:10:41.607Z,79.40
2018-06-02T00:13:10.412Z,79.45
2018-06-02T00:15:39.681Z,79.62
2018-06-02T00:18:09.567Z,79.89
2018-06-02T00:20:38.180Z,80.25
2018-06-02T00:23:06.975Z,80.40
2018-06-02T00:25:36.474Z,80.41
2018-06-02T00:28:06.899Z,80.74
2018-06-02T00:30:36.244Z,80.79
2018-06-02T00:33:05.858Z,80.89
2018-06-02T00:35:34.829Z,80.79
2018-06-02T00:38:03.929Z,80.96
2018-06-02T00:40:32.702Z,80.83
2018-06-02T00:43:01.459Z,80.98
2018-06-02T00:45:30.268Z,80.89
2018-06-02T00:47:59.183Z,81.12
2018-06-02T00:50:27.994Z,81.57
2018-06-02T00:52:56.753Z,81.65
2018-06-02T00:55:25.919Z,81.52
2018-06-02T00:57:55.218Z,81.27
2018-06-02T01:00:25.053Z,81.44
2018-06-02T01:02:54.467Z,81.95
2018-06-02T01:05:23.934Z,82.04
2018-06-02T01:07:52.735Z,82.06
2018-06-02T01:10:21.645Z,82.17
2018-06-02T01:12:50.473Z,82.21
2018-06-02T01:15:20.047Z,82.86
2018-06-02T01:17:49.506Z,82.95
2018-06-02T01:20:19.353Z,83.04
2018-06-02T01:22:48.347Z,83.01
2018-06-02T01:25:18.124Z,83.09
2018-06-02T01:27:47.774Z,83.16
2018-06-02T01:30:17.242Z,83.11
2018-06-02T01:32:45.942Z,83.02
2018-06-02T01:35:14.742Z,82.77
2018-06-02T01:37:43.568Z,82.85
2018-06-02T01:40:12.305Z,83.21
2018-06-02T01:42:41.112Z,83.44
2018-06-02T01:45:09.891Z,83.37
2018-06-02T01:47:38.612Z,83.47
2018-06-02T01:50:07.445Z,83.60
2018-06-02T01:52:36.419Z,83.54
2018-06-02T01:55:06.267Z,82.85
2018-06-02T01:57:35.543Z,82.49
2018-06-02T02:00:04.921Z,82.38
2018-06-02T02:02:33.611Z,82.80
2018-06-02T02:05:02.429Z,83.21
2018-06-02T02:07:31.416Z,83.77
2018-06-02T02:10:00.976Z,84.33
2018-06-02T02:12:31.213Z,84.64
2018-06-02T02:14:59.768Z,84.78
2018-06-02T02:17:28.516Z,85.18
2018-06-02T02:19:58.030Z,85.39
2018-06-02T02:22:27.529Z,85.54
2018-06-02T02:24:57.217Z,86.03
2018-06-02T02:27:26.904Z,86.27
2018-06-02T02:29:56.571Z,86.28
2018-06-02T02:32:25.383Z,86.24
2018-06-02T02:34:54.185Z,86.20
2018-06-02T02:37:23.101Z,86.09
2018-06-02T02:39:52.009Z,85.69
2018-06-02T02:42:20.735Z,85.13
2018-06-02T02:44:49.502Z,85.14
2018-06-02T02:47:18.940Z,85.27
2018-06-02T02:49:47.720Z,85.03
2018-06-02T02:52:17.221Z,84.89
2018-06-02T02:54:46.791Z,84.98
2018-06-02T02:57:16.923Z,85.07
2018-06-02T02:59:46.589Z,85.12
2018-06-02T03:02:15.251Z,85.46
2018-06-02T03:04:44.106Z,85.69
2018-06-02T03:07:13.072Z,85.74
2018-06-02T03:09:42.539Z,85.55
2018-06-02T03:12:11.359Z,85.20
2018-06-02T03:14:39.963Z,85.06
2018-06-02T03:17:08.769Z,84.91
2018-06-02T03:19:37.585Z,85.19
2018-06-02T03:22:06.552Z,85.45
2018-06-02T03:24:35.793Z,85.69
2018-06-02T03:27:05.935Z,85.76
2018-06-02T03:29:35.281Z,85.60
2018-06-02T03:32:04.034Z,85.45
2018-06-02T03:34:32.840Z,85.43
2018-06-02T03:37:01.542Z,85.50
2018-06-02T03:39:30.313Z,85.62
2018-06-02T03:41:59.027Z,85.80
2018-06-02T03:44:27.611Z,85.88
2018-06-02T03:46:57.057Z,85.82
2018-06-02T03:49:25.849Z,85.75
2018-06-02T03:51:54.699Z,85.61
2018-06-02T03:54:24.249Z,85.47
2018-06-02T03:56:53.929Z,85.66
2018-06-02T03:59:23.060Z,85.55
2018-06-02T04:01:51.748Z,85.23
2018-06-02T04:04:21.040Z,85.32
2018-06-02T04:06:50.389Z,84.15
2018-06-02T04:09:19.147Z,83.47
2018-06-02T04:11:47.908Z,83.33
2018-06-02T04:14:17.643Z,83.01
2018-06-02T04:16:46.277Z,82.97
2018-06-02T04:19:15.044Z,83.02
2018-06-02T04:21:44.593Z,83.06
2018-06-02T04:24:14.076Z,83.45
2018-06-02T04:26:44.154Z,83.58
2018-06-02T04:29:12.975Z,83.37
2018-06-02T04:31:41.753Z,83.57
2018-06-02T04:34:11.791Z,83.63
2018-06-02T04:36:41.146Z,83.74
2018-06-02T04:39:10.064Z,83.61
2018-06-02T04:41:38.815Z,83.36
2018-06-02T04:44:07.568Z,83.24
2018-06-02T04:46:36.246Z,83.01
2018-06-02T04:49:05.803Z,82.36
2018-06-02T04:51:34.512Z,82.08
2018-06-02T04:54:04.265Z,81.69
2018-06-02T04:56:33.454Z,81.39
2018-06-02T04:59:02.380Z,80.62
2018-06-02T05:01:30.913Z,80.07
2018-06-02T05:03:59.445Z,79.51
2018-06-02T05:06:29.112Z,79.43
2018-06-02T05:08:57.869Z,78.99
2018-06-02T05:11:26.583Z,78.66
2018-06-02T05:13:55.339Z,78.70
2018-06-02T05:16:24.969Z,78.31
2018-06-02T05:18:53.673Z,77.80
2018-06-02T05:21:22.934Z,77.57
2018-06-02T05:23:52.016Z,77.06
2018-06-02T05:26:21.472Z,76.46
2018-06-02T05:28:50.439Z,76.42
2018-06-02T05:31:20.387Z,76.64
2018-06-02T05:33:49.115Z,75.64
2018-06-02T05:36:18.001Z,75.15
2018-06-02T05:38:46.776Z,74.55
2018-06-02T05:41:16.292Z,74.19
2018-06-02T05:43:45.158Z,73.63
2018-06-02T05:46:14.988Z,72.91
2018-06-02T05:48:43.825Z,73.01
2018-06-02T05:51:13.529Z,72.21
2018-06-02T05:53:42.960Z,71.62
2018-06-02T05:56:12.512Z,70.89
2018-06-02T05:58:42.443Z,69.40
2018-06-02T06:01:12.029Z,70.10
2018-06-02T06:03:40.846Z,70.41
2018-06-02T06:06:09.737Z,70.22
2018-06-02T06:08:38.682Z,68.99
2018-06-02T06:11:09.790Z,66.30
2018-06-02T06:13:38.723Z,62.28
2018-06-02T06:16:08.690Z,58.18
2018-06-02T06:18:37.803Z,53.90
2018-06-02T06:21:07.791Z,51.70
2018-06-02T06:23:37.393Z,50.15
2018-06-02T06:26:06.184Z,48.18
2018-06-02T06:28:35.196Z,45.95
2018-06-02T06:31:04.006Z,45.21
2018-06-02T06:33:33.329Z,45.97
2018-06-02T06:36:02.025Z,45.04
2018-06-02T06:38:30.962Z,44.72
2018-06-02T06:40:59.764Z,43.77
2018-06-02T06:43:29.952Z,42.74
2018-06-02T06:45:59.730Z,40.82
2018-06-02T06:48:29.877Z,39.69
2018-06-02T06:50:59.905Z,39.40
2018-06-02T06:53:29.114Z,38.99
2018-06-02T06:55:58.046Z,39.93
2018-06-02T06:58:26.703Z,39.05
2018-06-02T07:00:55.710Z,38.92
2018-06-02T07:03:24.686Z,37.89
2018-06-02T07:05:53.504Z,36.82
2018-06-02T07:08:22.300Z,35.24
2018-06-02T07:10:51.078Z,35.63
2018-06-02T07:13:20.863Z,34.15
2018-06-02T07:15:50.675Z,33.35
2018-06-02T07:18:20.659Z,33.48
2018-06-02T07:20:50.533Z,33.73
2018-06-02T07:23:19.559Z,33.38
2018-06-02T07:25:48.259Z,34.31
2018-06-02T07:28:17.128Z,34.87
2018-06-02T07:30:46.709Z,33.41
2018-06-02T07:33:15.413Z,32.92
2018-06-02T07:35:45.053Z,31.60
2018-06-02T07:38:14.062Z,30.81
2018-06-02T07:40:42.755Z,31.08
2018-06-02T07:43:11.784Z,30.09
2018-06-02T07:45:41.127Z,28.19
2018-06-02T07:48:11.402Z,27.48
2018-06-02T07:50:42.665Z,27.19
2018-06-02T07:53:11.603Z,28.43
2018-06-02T07:55:41.438Z,28.25
2018-06-02T07:58:10.272Z,27.59
2018-06-02T08:00:39.083Z,27.15
2018-06-02T08:03:07.900Z,26.04
2018-06-02T08:05:36.716Z,23.14
2018-06-02T08:08:05.773Z,24.90
2018-06-02T08:10:35.149Z,25.28
2018-06-02T08:13:04.341Z,24.61
2018-06-02T08:15:34.695Z,24.83
2018-06-02T08:18:05.788Z,27.22
2018-06-02T08:20:35.835Z,28.44
2018-06-02T08:23:05.399Z,27.82
2018-06-02T08:25:34.876Z,30.14
2018-06-02T08:28:04.051Z,28.46
2018-06-02T08:30:34.076Z,27.20
2018-06-02T08:33:04.125Z,26.69
2018-06-02T08:35:33.055Z,26.06
2018-06-02T08:38:01.976Z,25.30
2018-06-02T08:40:30.669Z,25.20
2018-06-02T08:42:59.658Z,24.11
2018-06-02T08:45:30.326Z,24.06
2018-06-02T08:47:59.349Z,23.42
2018-06-02T08:50:28.834Z,22.72
2018-06-02T08:52:57.602Z,23.50
2018-06-02T08:55:26.894Z,23.30
2018-06-02T08:57:56.235Z,22.71
2018-06-02T09:00:25.329Z,22.48
2018-06-02T09:02:54.874Z,21.66
2018-06-02T09:05:23.762Z,23.72
2018-06-02T09:07:53.940Z,24.87
2018-06-02T09:10:23.154Z,25.52
2018-06-02T09:12:52.488Z,24.89
2018-06-02T09:15:22.611Z,23.13
2018-06-02T09:17:52.372Z,22.27
2018-06-02T09:20:21.266Z,24.16
2018-06-02T09:22:51.769Z,29.09
2018-06-02T09:25:22.215Z,25.51
2018-06-02T09:27:51.999Z,24.47
2018-06-02T09:30:22.102Z,25.91
2018-06-02T09:32:51.047Z,25.85
2018-06-02T09:35:20.234Z,25.21
2018-06-02T09:37:50.182Z,26.14
2018-06-02T09:40:19.919Z,25.05
2018-06-02T09:42:49.375Z,26.45
2018-06-02T09:45:18.701Z,25.93
2018-06-02T09:47:47.730Z,24.31
2018-06-02T09:50:16.607Z,25.63
2018-06-02T09:52:45.519Z,26.80
2018-06-02T09:55:14.383Z,28.00
2018-06-02T09:57:43.067Z,28.31
2018-06-02T10:00:11.873Z,28.75
2018-06-02T10:02:41.584Z,25.36
2018-06-02T10:05:10.186Z,25.59
2018-06-02T10:07:39.997Z,23.66
2018-06-02T10:10:10.131Z,25.65
2018-06-02T10:12:40.802Z,24.96
2018-06-02T10:15:10.680Z,24.04
2018-06-02T10:17:39.659Z,21.07
2018-06-02T10:20:08.580Z,21.12
2018-06-02T10:22:37.171Z,23.89
2018-06-02T10:25:06.013Z,22.22
2018-06-02T10:27:35.863Z,21.76
2018-06-02T10:30:05.250Z,21.70
2018-06-02T10:32:35.073Z,22.51
2018-06-02T10:35:04.061Z,22.51
2018-06-02T10:37:34.641Z,23.77
2018-06-02T10:40:04.089Z,24.25
2018-06-02T10:42:33.157Z,24.98
2018-06-02T10:45:02.016Z,23.85
2018-06-02T10:47:30.780Z,23.83
2018-06-02T10:49:59.487Z,25.63
2018-06-02T10:52:28.155Z,25.80
2018-06-02T10:54:57.956Z,25.33
2018-06-02T10:57:26.805Z,28.81
2018-06-02T10:59:55.685Z,29.82
2018-06-02T11:02:24.581Z,26.94
2018-06-02T11:04:53.476Z,25.67
2018-06-02T11:07:24.062Z,25.98
2018-06-02T11:09:53.826Z,25.19
2018-06-02T11:12:23.818Z,24.87
2018-06-02T11:14:53.458Z,24.24
2018-06-02T11:17:22.220Z,29.64
2018-06-02T11:19:51.952Z,30.21
2018-06-02T11:22:22.338Z,28.61
2018-06-02T11:24:51.124Z,27.17
2018-06-02T11:27:20.604Z,27.08
2018-06-02T11:29:49.782Z,27.08
2018-06-02T11:32:20.130Z,30.50
2018-06-02T11:34:49.757Z,31.85
2018-06-02T11:37:20.063Z,30.95
2018-06-02T11:39:49.825Z,31.41
2018-06-02T11:42:18.397Z,30.55
2018-06-02T11:44:47.470Z,28.90
2018-06-02T11:47:16.197Z,27.92
2018-06-02T11:49:46.412Z,32.46
2018-06-02T11:52:15.828Z,30.40
2018-06-02T11:54:44.740Z,30.33
2018-06-02T11:57:13.548Z,30.40
2018-06-02T11:59:42.964Z,27.72
2018-06-02T12:02:13.216Z,28.56
2018-06-02T12:04:44.360Z,27.87
2018-06-02T12:07:13.089Z,26.14
2018-06-02T12:09:42.165Z,26.36
2018-06-02T12:12:12.348Z,29.04
2018-06-02T12:14:40.952Z,27.46
2018-06-02T12:17:11.075Z,30.72
2018-06-02T12:19:40.109Z,29.74
2018-06-02T12:22:09.846Z,29.12
2018-06-02T12:24:38.542Z,27.71
2018-06-02T12:27:08.280Z,28.79
2018-06-02T12:29:38.754Z,29.47
2018-06-02T12:32:08.241Z,28.03
2018-06-02T12:34:37.677Z,26.45
2018-06-02T12:37:07.471Z,25.70
2018-06-02T12:39:38.150Z,24.18
2018-06-02T12:42:08.220Z,23.21
2018-06-02T12:44:37.217Z,22.96
2018-06-02T12:47:06.073Z,25.22
2018-06-02T12:49:36.257Z,28.51
2018-06-02T12:52:06.610Z,28.87
2018-06-02T12:54:37.435Z,27.58
2018-06-02T12:57:07.713Z,28.61
2018-06-02T12:59:38.231Z,28.68
2018-06-02T13:02:09.201Z,26.17
2018-06-02T13:04:38.885Z,24.71
2018-06-02T13:07:10.245Z,23.82
2018-06-02T13:09:39.751Z,24.13
2018-06-02T13:12:09.653Z,23.90
2018-06-02T13:14:38.642Z,26.01
2018-06-02T13:17:07.503Z,26.16
2018-06-02T13:19:37.680Z,28.29
2018-06-02T13:22:09.523Z,27.55
2018-06-02T13:24:39.375Z,25.85
2018-06-02T13:27:09.062Z,25.21
2018-06-02T13:29:38.893Z,25.50
2018-06-02T13:32:08.150Z,25.69
2018-06-02T13:34:37.900Z,25.26
2018-06-02T13:37:06.726Z,25.79
2018-06-02T13:39:37.093Z,24.70
2018-06-02T13:42:07.189Z,23.34
2018-06-02T13:44:37.046Z,24.07
2018-06-02T13:47:07.353Z,23.25
2018-06-02T13:49:36.836Z,22.56
2018-06-02T13:52:07.336Z,26.46
2018-06-02T13:54:38.387Z,24.88
2018-06-02T13:57:08.294Z,24.00
2018-06-02T13:59:38.016Z,24.45
2018-06-02T14:02:07.689Z,24.74
2018-06-02T14:04:37.385Z,25.32
2018-06-02T14:07:06.314Z,25.42
2018-06-02T14:09:35.663Z,24.86
2018-06-02T14:12:06.180Z,24.19
2018-06-02T14:14:35.322Z,23.87
2018-06-02T14:17:04.109Z,25.33
2018-06-02T14:19:33.916Z,24.83
2018-06-02T14:22:02.669Z,27.68
2018-06-02T14:24:31.563Z,27.52
2018-06-02T14:27:00.432Z,29.33
2018-06-02T14:29:29.198Z,27.79
2018-06-02T14:31:58.429Z,28.22
2018-06-02T14:34:28.350Z,29.43
2018-06-02T14:36:57.283Z,27.55
2018-06-02T14:39:27.261Z,27.13
2018-06-02T14:41:58.184Z,26.92
2018-06-02T14:44:27.562Z,26.03
2018-06-02T14:46:56.582Z,26.45
2018-06-02T14:49:26.178Z,29.22
2018-06-02T14:51:56.801Z,29.99
2018-06-02T14:54:26.457Z,29.91
2018-06-02T14:56:57.542Z,32.57
2018-06-02T14:59:27.903Z,32.85
2018-06-02T15:01:59.814Z,32.73
2018-06-02T15:04:32.218Z,32.86
2018-06-02T15:07:02.889Z,33.69
2018-06-02T15:09:32.967Z,34.68
2018-06-02T15:12:03.066Z,34.56
2018-06-02T15:14:33.719Z,34.44
2018-06-02T15:17:03.968Z,33.77
2018-06-02T15:19:32.757Z,34.36
2018-06-02T15:22:02.495Z,33.60
2018-06-02T15:24:32.764Z,34.35
2018-06-02T15:27:02.479Z,33.55
2018-06-02T15:29:33.907Z,33.94
2018-06-02T15:32:03.501Z,32.95
2018-06-02T15:34:32.349Z,33.70
2018-06-02T15:37:01.325Z,32.72
2018-06-02T15:39:31.214Z,32.64
2018-06-02T15:42:01.909Z,31.48
2018-06-02T15:44:30.925Z,32.09
2018-06-02T15:46:59.720Z,31.65
2018-06-02T15:49:28.540Z,32.33
2018-06-02T15:51:58.076Z,32.21
2018-06-02T15:54:28.047Z,33.07
2018-06-02T15:56:57.815Z,34.85
2018-06-02T15:59:26.616Z,35.30
2018-06-02T16:01:56.198Z,36.05
2018-06-02T16:04:25.096Z,37.14
2018-06-02T16:06:54.961Z,38.91
2018-06-02T16:09:24.591Z,40.53
2018-06-02T16:11:54.533Z,41.72
2018-06-02T16:14:24.726Z,41.95
2018-06-02T16:16:55.116Z,43.01
2018-06-02T16:19:26.241Z,43.96
2018-06-02T16:21:56.632Z,42.50
2018-06-02T16:24:25.983Z,42.19
2018-06-02T16:26:55.947Z,42.77
2018-06-02T16:29:24.756Z,43.59
2018-06-02T16:31:53.665Z,43.44
2018-06-02T16:34:23.612Z,43.14
2018-06-02T16:36:52.245Z,45.49
2018-06-02T16:39:20.917Z,45.35
2018-06-02T16:41:49.847Z,45.99
2018-06-02T16:44:18.645Z,46.42
2018-06-02T16:46:48.381Z,47.12
2018-06-02T16:49:19.181Z,47.10
2018-06-02T16:51:48.716Z,47.23
2018-06-02T16:54:18.093Z,47.36
2018-06-02T16:56:46.890Z,47.83
2018-06-02T16:59:15.679Z,48.29
2018-06-02T17:01:44.382Z,48.21
2018-06-02T17:04:13.504Z,48.25
2018-06-02T17:06:42.228Z,47.67
2018-06-02T17:09:11.040Z,47.35
2018-06-02T17:11:39.741Z,47.46
2018-06-02T17:14:08.483Z,47.02
2018-06-02T17:16:38.391Z,47.27
2018-06-02T17:19:08.072Z,46.51
2018-06-02T17:21:36.949Z,46.79
2018-06-02T17:24:06.051Z,47.17
2018-06-02T17:26:34.670Z,48.19
2018-06-02T17:29:03.369Z,48.05
2018-06-02T17:31:32.176Z,48.37
2018-06-02T17:34:01.290Z,48.25
2018-06-02T17:36:30.187Z,50.16
2018-06-02T17:38:59.896Z,50.38
2018-06-02T17:41:29.411Z,51.18
2018-06-02T17:43:58.385Z,52.30
2018-06-02T17:46:27.142Z,51.33
2018-06-02T17:48:58.011Z,51.40
2018-06-02T17:51:28.476Z,50.87
2018-06-02T17:53:57.509Z,50.78
2018-06-02T17:56:26.420Z,50.55
2018-06-02T17:58:55.221Z,50.54
2018-06-02T18:01:24.067Z,51.78
2018-06-02T18:03:53.286Z,51.88
2018-06-02T18:06:22.609Z,51.82
2018-06-02T18:08:52.353Z,52.92
2018-06-02T18:11:21.425Z,53.36
2018-06-02T18:13:50.362Z,53.17
2018-06-02T18:16:20.290Z,52.88
2018-06-02T18:18:50.857Z,52.69
2018-06-02T18:21:21.110Z,53.09
2018-06-02T18:23:52.287Z,52.97
2018-06-02T18:26:23.071Z,53.09
2018-06-02T18:28:53.234Z,53.08
2018-06-02T18:31:22.239Z,53.48
2018-06-02T18:33:51.776Z,53.81
2018-06-02T18:36:20.697Z,53.98
2018-06-02T18:38:49.736Z,55.22
2018-06-02T18:41:19.895Z,54.15
2018-06-02T18:43:50.202Z,54.61
2018-06-02T18:46:19.224Z,55.70
2018-06-02T18:48:48.208Z,57.04
2018-06-02T18:51:17.845Z,58.24
2018-06-02T18:53:46.826Z,59.42
2018-06-02T18:56:15.847Z,59.86
2018-06-02T18:58:44.575Z,60.16
2018-06-02T19:01:13.526Z,60.67
2018-06-02T19:03:43.950Z,61.29
2018-06-02T19:06:12.846Z,61.43
2018-06-02T19:08:42.929Z,61.93
2018-06-02T19:11:12.802Z,62.65
2018-06-02T19:13:42.278Z,62.83
2018-06-02T19:16:11.329Z,62.74
2018-06-02T19:18:41.472Z,62.94
2018-06-02T19:21:10.488Z,63.28
2018-06-02T19:23:40.609Z,63.20
2018-06-02T19:26:10.453Z,62.81
2018-06-02T19:28:41.005Z,63.44
2018-06-02T19:31:09.879Z,63.98
2018-06-02T19:33:38.544Z,64.86
2018-06-02T19:36:08.429Z,65.52
2018-06-02T19:38:38.074Z,65.82
2018-06-02T19:41:08.655Z,67.05
2018-06-02T19:43:37.897Z,67.95
2018-06-02T19:46:06.563Z,68.03
2018-06-02T19:48:36.308Z,68.07
2018-06-02T19:51:05.838Z,68.27
2018-06-02T19:53:35.044Z,68.14
2018-06-02T19:56:03.896Z,68.56
2018-06-02T19:58:33.519Z,68.83
2018-06-02T20:01:02.240Z,69.19
2018-06-02T20:03:31.747Z,68.49
2018-06-02T20:06:01.071Z,68.34
2018-06-02T20:08:30.435Z,69.20
2018-06-02T20:10:59.590Z,69.98
2018-06-02T20:13:28.557Z,70.35
2018-06-02T20:15:57.551Z,70.42
2018-06-02T20:18:26.559Z,71.44
2018-06-02T20:20:55.540Z,71.41
2018-06-02T20:23:25.270Z,71.61
2018-06-02T20:25:55.028Z,72.15
2018-06-02T20:28:24.158Z,72.15
2018-06-02T20:30:53.359Z,72.11
2018-06-02T20:33:22.348Z,72.08
2018-06-02T20:35:52.862Z,72.43
2018-06-02T20:38:22.770Z,72.41
2018-06-02T20:40:51.580Z,72.68
2018-06-02T20:43:20.287Z,72.70
2018-06-02T20:45:49.399Z,72.87
2018-06-02T20:48:19.127Z,72.40
2018-06-02T20:50:48.391Z,72.31
2018-06-02T20:53:18.614Z,72.68
2018-06-02T20:55:48.767Z,73.03
2018-06-02T20:58:17.749Z,73.08
2018-06-02T21:00:46.866Z,73.31
2018-06-02T21:03:16.151Z,73.69
2018-06-02T21:05:46.965Z,73.83
2018-06-02T21:08:16.719Z,73.80
2018-06-02T21:10:45.640Z,73.64
2018-06-02T21:13:16.657Z,73.83
2018-06-02T21:15:45.518Z,73.88
2018-06-02T21:18:15.733Z,73.88
2018-06-02T21:20:46.022Z,73.66
2018-06-02T21:23:16.179Z,73.75
2018-06-02T21:25:44.897Z,73.64
2018-06-02T21:28:14.897Z,73.26
2018-06-02T21:30:46.233Z,73.27
2018-06-02T21:33:15.012Z,73.35
2018-06-02T21:35:45.193Z,73.80
2018-06-02T21:38:14.161Z,74.48
2018-06-02T21:40:43.302Z,74.63
2018-06-02T21:43:12.989Z,74.98
2018-06-02T21:45:41.807Z,75.19
2018-06-02T21:48:11.501Z,75.05
2018-06-02T21:50:40.973Z,75.35
2018-06-02T21:53:09.992Z,75.58
2018-06-02T21:55:39.212Z,75.81
2018-06-02T21:58:09.329Z,76.41
2018-06-02T22:00:38.781Z,77.85
2018-06-02T22:03:08.494Z,77.64
2018-06-02T22:05:38.513Z,78.19
2018-06-02T22:08:08.017Z,78.83
2018-06-02T22:10:38.924Z,79.11
2018-06-02T22:13:07.939Z,78.33
2018-06-02T22:15:36.879Z,77.03
2018-06-02T22:18:06.858Z,76.78
2018-06-02T22:20:36.517Z,76.43
2018-06-02T22:23:06.545Z,76.33
2018-06-02T22:25:36.773Z,76.31
2018-06-02T22:28:06.795Z,76.45
2018-06-02T22:30:36.450Z,77.05
2018-06-02T22:33:05.167Z,77.33
2018-06-02T22:35:34.898Z,77.87
2018-06-02T22:38:04.401Z,78.19
2018-06-02T22:40:34.259Z,78.14
2018-06-02T22:43:04.698Z,77.98
2018-06-02T22:45:33.466Z,78.42
2018-06-02T22:48:03.865Z,78.29
2018-06-02T22:50:33.965Z,78.43
2018-06-02T22:53:04.162Z,79.55
2018-06-02T22:55:33.037Z,80.95
2018-06-02T22:58:02.010Z,80.74
2018-06-02T23:00:31.201Z,79.63
2018-06-02T23:03:01.580Z,79.40
2018-06-02T23:05:31.472Z,79.49
2018-06-02T23:08:00.889Z,79.81
2018-06-02T23:10:30.525Z,79.68
2018-06-02T23:12:59.497Z,79.59
2018-06-02T23:15:28.312Z,79.80
2018-06-02T23:17:58.618Z,79.95
2018-06-02T23:20:28.485Z,80.07
2018-06-02T23:22:58.357Z,80.23
2018-06-02T23:25:28.189Z,80.30
2018-06-02T23:27:56.943Z,80.50
2018-06-02T23:30:25.795Z,80.58
2018-06-02T23:32:54.525Z,82.23
2018-06-02T23:35:23.336Z,82.68
2018-06-02T23:37:52.067Z,83.08
2018-06-02T23:40:20.854Z,83.22
2018-06-02T23:42:49.860Z,83.37
2018-06-02T23:45:18.840Z,83.57
2018-06-02T23:47:49.053Z,83.73
2018-06-02T23:50:18.443Z,83.71
2018-06-02T23:52:47.250Z,83.78
2018-06-02T23:55:15.953Z,83.77
2018-06-02T23:57:44.509Z,83.84
